sensor_id;sensor_type;location;lat;lon;timestamp;pressure;altitude;pressure_sealevel;temperature;humidity
49341;BME280;35209;51.050;13.678;2023-03-22T00:04:31;99677.97;;;10.66;100.00
49341;BME280;35209;51.050;13.678;2023-03-22T00:09:33;99667.06;;;10.76;100.00
49341;BME280;35209;51.050;13.678;2023-03-22T00:14:35;99675.63;;;10.58;100.00
49341;BME280;35209;51.050;13.678;2023-03-22T00:19:37;99668.81;;;10.52;100.00
49341;BME280;35209;51.050;13.678;2023-03-22T00:24:38;99667.63;;;10.61;100.00
49341;BME280;35209;51.050;13.678;2023-03-22T00:29:40;99666.03;;;10.57;100.00
49341;BME280;35209;51.050;13.678;2023-03-22T00:34:42;99649.84;;;10.44;100.00
49341;BME280;35209;51.050;13.678;2023-03-22T00:39:44;99646.78;;;10.33;100.00
49341;BME280;35209;51.050;13.678;2023-03-22T00:44:46;99634.50;;;10.33;100.00
49341;BME280;35209;51.050;13.678;2023-03-22T00:49:48;99633.81;;;10.28;100.00
49341;BME280;35209;51.050;13.678;2023-03-22T00:54:51;99625.31;;;10.20;100.00
49341;BME280;35209;51.050;13.678;2023-03-22T00:59:53;99623.63;;;10.19;100.00
49341;BME280;35209;51.050;13.678;2023-03-22T01:04:56;99628.06;;;10.17;100.00
49341;BME280;35209;51.050;13.678;2023-03-22T01:09:59;99622.94;;;10.14;100.00
49341;BME280;35209;51.050;13.678;2023-03-22T01:15:03;99629.38;;;10.05;100.00
49341;BME280;35209;51.050;13.678;2023-03-22T01:20:05;99632.63;;;9.87;100.00
49341;BME280;35209;51.050;13.678;2023-03-22T01:25:08;99628.78;;;9.97;100.00
49341;BME280;35209;51.050;13.678;2023-03-22T01:30:10;99618.78;;;9.83;100.00
49341;BME280;35209;51.050;13.678;2023-03-22T01:35:12;99603.19;;;9.79;100.00
49341;BME280;35209;51.050;13.678;2023-03-22T01:40:16;99600.72;;;9.49;100.00
49341;BME280;35209;51.050;13.678;2023-03-22T01:50:42;99593.63;;;9.26;100.00
49341;BME280;35209;51.050;13.678;2023-03-22T01:55:45;99586.81;;;9.21;100.00
49341;BME280;35209;51.050;13.678;2023-03-22T02:00:55;99591.09;;;8.97;100.00
49341;BME280;35209;51.050;13.678;2023-03-22T02:06:12;99589.31;;;8.99;100.00
49341;BME280;35209;51.050;13.678;2023-03-22T02:11:16;99584.69;;;8.79;100.00
49341;BME280;35209;51.050;13.678;2023-03-22T02:16:35;99592.63;;;8.76;100.00
49341;BME280;35209;51.050;13.678;2023-03-22T02:27:43;99594.88;;;8.30;100.00
49341;BME280;35209;51.050;13.678;2023-03-22T02:49:03;99592.66;;;7.86;100.00
49341;BME280;35209;51.050;13.678;2023-03-22T02:54:08;99594.28;;;7.90;100.00
49341;BME280;35209;51.050;13.678;2023-03-22T02:59:13;99579.53;;;7.87;100.00
49341;BME280;35209;51.050;13.678;2023-03-22T03:04:19;99578.00;;;7.47;100.00
49341;BME280;35209;51.050;13.678;2023-03-22T03:09:22;99578.22;;;7.38;100.00
49341;BME280;35209;51.050;13.678;2023-03-22T03:14:30;99579.50;;;7.23;100.00
49341;BME280;35209;51.050;13.678;2023-03-22T03:20:04;99576.81;;;7.26;100.00
49341;BME280;35209;51.050;13.678;2023-03-22T03:30:28;99584.41;;;7.01;100.00
49341;BME280;35209;51.050;13.678;2023-03-22T03:35:40;99587.28;;;7.26;100.00
49341;BME280;35209;51.050;13.678;2023-03-22T03:40:48;99571.97;;;7.11;100.00
49341;BME280;35209;51.050;13.678;2023-03-22T03:45:51;99572.13;;;6.68;100.00
49341;BME280;35209;51.050;13.678;2023-03-22T03:50:56;99565.25;;;6.64;100.00
49341;BME280;35209;51.050;13.678;2023-03-22T03:55:59;99570.31;;;6.71;100.00
49341;BME280;35209;51.050;13.678;2023-03-22T04:01:08;99560.31;;;6.89;100.00
49341;BME280;35209;51.050;13.678;2023-03-22T04:06:26;99570.19;;;7.12;100.00
49341;BME280;35209;51.050;13.678;2023-03-22T04:11:33;99572.38;;;7.28;100.00
49341;BME280;35209;51.050;13.678;2023-03-22T04:16:37;99577.25;;;7.44;100.00
49341;BME280;35209;51.050;13.678;2023-03-22T04:21:43;99565.94;;;7.42;100.00
49341;BME280;35209;51.050;13.678;2023-03-22T04:26:45;99570.31;;;7.41;100.00
49341;BME280;35209;51.050;13.678;2023-03-22T04:31:55;99568.59;;;7.40;100.00
49341;BME280;35209;51.050;13.678;2023-03-22T04:37:02;99567.75;;;7.40;100.00
49341;BME280;35209;51.050;13.678;2023-03-22T04:42:11;99563.22;;;7.46;100.00
49341;BME280;35209;51.050;13.678;2023-03-22T04:47:13;99565.03;;;7.44;100.00
49341;BME280;35209;51.050;13.678;2023-03-22T04:52:16;99558.28;;;7.36;100.00
49341;BME280;35209;51.050;13.678;2023-03-22T04:57:25;99564.44;;;7.33;100.00
49341;BME280;35209;51.050;13.678;2023-03-22T05:02:27;99562.00;;;7.25;100.00
49341;BME280;35209;51.050;13.678;2023-03-22T05:07:30;99559.50;;;7.22;100.00
49341;BME280;35209;51.050;13.678;2023-03-22T05:12:34;99558.22;;;7.37;100.00
49341;BME280;35209;51.050;13.678;2023-03-22T05:17:56;99560.03;;;7.35;100.00
49341;BME280;35209;51.050;13.678;2023-03-22T05:22:58;99557.31;;;7.38;100.00
49341;BME280;35209;51.050;13.678;2023-03-22T05:28:05;99557.59;;;7.62;100.00
49341;BME280;35209;51.050;13.678;2023-03-22T05:33:16;99558.75;;;7.50;100.00
49341;BME280;35209;51.050;13.678;2023-03-22T05:38:26;99562.22;;;7.50;100.00
49341;BME280;35209;51.050;13.678;2023-03-22T05:43:32;99560.09;;;7.65;100.00
49341;BME280;35209;51.050;13.678;2023-03-22T05:48:34;99562.13;;;7.86;100.00
49341;BME280;35209;51.050;13.678;2023-03-22T05:53:38;99561.88;;;8.25;99.20
49341;BME280;35209;51.050;13.678;2023-03-22T05:58:50;99549.09;;;8.44;98.90
49341;BME280;35209;51.050;13.678;2023-03-22T06:03:54;99554.06;;;8.53;98.16
49341;BME280;35209;51.050;13.678;2023-03-22T06:09:03;99564.56;;;8.79;96.58
49341;BME280;35209;51.050;13.678;2023-03-22T06:14:19;99568.91;;;8.80;96.82
49341;BME280;35209;51.050;13.678;2023-03-22T06:19:46;99552.84;;;9.18;94.53
49341;BME280;35209;51.050;13.678;2023-03-22T06:24:49;99546.81;;;9.41;93.26
49341;BME280;35209;51.050;13.678;2023-03-22T06:30:00;99548.75;;;9.34;93.61
49341;BME280;35209;51.050;13.678;2023-03-22T06:35:09;99547.97;;;9.57;93.90
49341;BME280;35209;51.050;13.678;2023-03-22T06:40:11;99550.16;;;9.69;92.57
49341;BME280;35209;51.050;13.678;2023-03-22T06:45:13;99558.91;;;9.93;91.09
49341;BME280;35209;51.050;13.678;2023-03-22T06:50:18;99546.97;;;9.84;92.10
49341;BME280;35209;51.050;13.678;2023-03-22T06:55:46;99552.97;;;10.11;90.73
49341;BME280;35209;51.050;13.678;2023-03-22T07:00:54;99556.81;;;10.26;89.38
49341;BME280;35209;51.050;13.678;2023-03-22T07:06:00;99550.94;;;10.43;87.20
49341;BME280;35209;51.050;13.678;2023-03-22T07:11:05;99537.28;;;10.33;89.73
49341;BME280;35209;51.050;13.678;2023-03-22T07:16:07;99540.97;;;10.51;87.37
49341;BME280;35209;51.050;13.678;2023-03-22T07:21:17;99541.16;;;10.69;85.48
49341;BME280;35209;51.050;13.678;2023-03-22T07:26:24;99545.97;;;10.79;85.87
49341;BME280;35209;51.050;13.678;2023-03-22T07:31:29;99546.16;;;10.97;83.35
49341;BME280;35209;51.050;13.678;2023-03-22T07:36:45;99543.38;;;11.22;81.38
49341;BME280;35209;51.050;13.678;2023-03-22T07:41:47;99547.97;;;11.17;84.35
49341;BME280;35209;51.050;13.678;2023-03-22T07:46:54;99546.91;;;11.61;80.54
49341;BME280;35209;51.050;13.678;2023-03-22T07:52:03;99547.38;;;11.92;81.94
49341;BME280;35209;51.050;13.678;2023-03-22T07:57:05;99537.06;;;12.25;76.01
49341;BME280;35209;51.050;13.678;2023-03-22T08:02:11;99539.84;;;12.41;75.03
49341;BME280;35209;51.050;13.678;2023-03-22T08:07:20;99537.59;;;12.69;71.52
49341;BME280;35209;51.050;13.678;2023-03-22T08:12:22;99545.94;;;13.13;70.86
49341;BME280;35209;51.050;13.678;2023-03-22T08:17:32;99546.56;;;13.37;67.33
49341;BME280;35209;51.050;13.678;2023-03-22T08:22:35;99550.78;;;13.57;62.89
49341;BME280;35209;51.050;13.678;2023-03-22T08:28:16;99549.41;;;13.50;62.15
49341;BME280;35209;51.050;13.678;2023-03-22T08:33:18;99540.06;;;13.60;61.36
49341;BME280;35209;51.050;13.678;2023-03-22T08:38:22;99533.88;;;13.95;61.23
49341;BME280;35209;51.050;13.678;2023-03-22T08:43:26;99538.31;;;14.10;59.42
49341;BME280;35209;51.050;13.678;2023-03-22T08:48:29;99534.78;;;14.27;59.65
49341;BME280;35209;51.050;13.678;2023-03-22T08:53:39;99532.13;;;14.27;59.44
49341;BME280;35209;51.050;13.678;2023-03-22T08:59:10;99535.63;;;14.27;57.58
49341;BME280;35209;51.050;13.678;2023-03-22T09:04:21;99537.47;;;14.09;57.50
49341;BME280;35209;51.050;13.678;2023-03-22T09:09:23;99526.31;;;14.36;56.95
49341;BME280;35209;51.050;13.678;2023-03-22T09:14:27;99527.13;;;14.54;56.78
49341;BME280;35209;51.050;13.678;2023-03-22T09:19:29;99517.72;;;14.80;56.79
49341;BME280;35209;51.050;13.678;2023-03-22T09:24:32;99516.13;;;15.07;55.10
49341;BME280;35209;51.050;13.678;2023-03-22T09:29:36;99509.00;;;15.38;55.23
49341;BME280;35209;51.050;13.678;2023-03-22T09:34:42;99508.66;;;15.58;53.71
49341;BME280;35209;51.050;13.678;2023-03-22T09:39:44;99501.69;;;16.00;51.68
49341;BME280;35209;51.050;13.678;2023-03-22T09:44:49;99487.75;;;16.11;50.62
49341;BME280;35209;51.050;13.678;2023-03-22T09:50:05;99474.63;;;16.36;50.49
49341;BME280;35209;51.050;13.678;2023-03-22T09:55:17;99477.63;;;16.99;48.43
49341;BME280;35209;51.050;13.678;2023-03-22T10:00:39;99472.78;;;17.31;46.70
49341;BME280;35209;51.050;13.678;2023-03-22T10:05:56;99466.97;;;16.86;47.02
49341;BME280;35209;51.050;13.678;2023-03-22T10:11:09;99469.72;;;16.30;48.95
49341;BME280;35209;51.050;13.678;2023-03-22T10:16:26;99467.09;;;16.57;46.83
49341;BME280;35209;51.050;13.678;2023-03-22T10:21:28;99469.44;;;16.35;47.71
49341;BME280;35209;51.050;13.678;2023-03-22T10:26:37;99458.13;;;16.73;47.50
49341;BME280;35209;51.050;13.678;2023-03-22T10:31:42;99449.72;;;17.06;48.31
49341;BME280;35209;51.050;13.678;2023-03-22T10:36:45;99446.44;;;17.15;47.22
49341;BME280;35209;51.050;13.678;2023-03-22T10:41:52;99442.72;;;17.05;46.44
49341;BME280;35209;51.050;13.678;2023-03-22T10:46:58;99425.63;;;16.96;47.00
49341;BME280;35209;51.050;13.678;2023-03-22T10:57:24;99420.44;;;17.33;46.96
49341;BME280;35209;51.050;13.678;2023-03-22T11:02:30;99423.44;;;18.03;46.34
49341;BME280;35209;51.050;13.678;2023-03-22T11:07:40;99426.09;;;18.03;44.59
49341;BME280;35209;51.050;13.678;2023-03-22T11:12:58;99423.63;;;18.37;45.74
49341;BME280;35209;51.050;13.678;2023-03-22T11:18:14;99412.16;;;18.60;43.96
49341;BME280;35209;51.050;13.678;2023-03-22T11:23:18;99388.78;;;18.88;43.13
49341;BME280;35209;51.050;13.678;2023-03-22T11:28:27;99386.66;;;19.15;42.81
49341;BME280;35209;51.050;13.678;2023-03-22T11:33:34;99371.53;;;19.38;41.88
49341;BME280;35209;51.050;13.678;2023-03-22T11:38:38;99370.22;;;19.22;42.09
49341;BME280;35209;51.050;13.678;2023-03-22T11:43:45;99351.28;;;19.02;42.15
49341;BME280;35209;51.050;13.678;2023-03-22T11:49:00;99332.66;;;19.58;42.13
49341;BME280;35209;51.050;13.678;2023-03-22T11:54:12;99335.53;;;19.78;41.64
49341;BME280;35209;51.050;13.678;2023-03-22T11:59:25;99328.06;;;19.60;39.77
49341;BME280;35209;51.050;13.678;2023-03-22T12:04:31;99321.25;;;19.56;40.70
49341;BME280;35209;51.050;13.678;2023-03-22T12:09:51;99315.34;;;19.41;40.71
49341;BME280;35209;51.050;13.678;2023-03-22T12:20:15;99311.06;;;18.83;42.86
49341;BME280;35209;51.050;13.678;2023-03-22T12:25:31;99294.03;;;18.97;42.71
49341;BME280;35209;51.050;13.678;2023-03-22T12:30:39;99302.84;;;18.97;41.88
49341;BME280;35209;51.050;13.678;2023-03-22T12:35:45;99287.25;;;18.57;43.13
49341;BME280;35209;51.050;13.678;2023-03-22T12:40:48;99292.94;;;18.53;42.33
49341;BME280;35209;51.050;13.678;2023-03-22T12:45:57;99283.63;;;18.58;44.11
49341;BME280;35209;51.050;13.678;2023-03-22T12:51:11;99287.13;;;18.48;42.57
49341;BME280;35209;51.050;13.678;2023-03-22T12:56:17;99279.34;;;18.33;42.04
49341;BME280;35209;51.050;13.678;2023-03-22T13:01:28;99286.19;;;18.60;41.53
49341;BME280;35209;51.050;13.678;2023-03-22T13:11:46;99277.19;;;18.50;39.70
49341;BME280;35209;51.050;13.678;2023-03-22T13:16:55;99269.22;;;18.38;39.79
49341;BME280;35209;51.050;13.678;2023-03-22T13:22:21;99252.91;;;18.54;39.86
49341;BME280;35209;51.050;13.678;2023-03-22T13:32:49;99255.00;;;18.27;39.45
49341;BME280;35209;51.050;13.678;2023-03-22T13:38:01;99250.19;;;18.32;40.28
49341;BME280;35209;51.050;13.678;2023-03-22T13:54:14;99230.22;;;18.26;43.36
49341;BME280;35209;51.050;13.678;2023-03-22T14:09:53;99221.84;;;18.08;41.93
49341;BME280;35209;51.050;13.678;2023-03-22T14:15:00;99203.97;;;17.86;43.67
49341;BME280;35209;51.050;13.678;2023-03-22T14:20:04;99198.50;;;17.77;43.60
49341;BME280;35209;51.050;13.678;2023-03-22T14:25:16;99211.41;;;17.94;43.47
49341;BME280;35209;51.050;13.678;2023-03-22T14:35:40;99190.13;;;17.94;44.46
49341;BME280;35209;51.050;13.678;2023-03-22T14:40:41;99188.44;;;17.93;44.17
49341;BME280;35209;51.050;13.678;2023-03-22T14:45:42;99190.56;;;17.88;43.33
49341;BME280;35209;51.050;13.678;2023-03-22T14:50:47;99195.63;;;18.15;42.90
49341;BME280;35209;51.050;13.678;2023-03-22T14:55:49;99190.31;;;18.26;42.84
49341;BME280;35209;51.050;13.678;2023-03-22T15:00:50;99191.50;;;18.11;42.65
49341;BME280;35209;51.050;13.678;2023-03-22T15:05:51;99185.22;;;18.23;41.79
49341;BME280;35209;51.050;13.678;2023-03-22T15:10:57;99183.66;;;18.21;42.00
49341;BME280;35209;51.050;13.678;2023-03-22T15:15:58;99183.56;;;18.45;41.00
49341;BME280;35209;51.050;13.678;2023-03-22T15:21:01;99174.50;;;18.25;40.36
49341;BME280;35209;51.050;13.678;2023-03-22T15:26:11;99171.34;;;18.31;40.04
49341;BME280;35209;51.050;13.678;2023-03-22T15:31:28;99174.31;;;18.04;40.64
49341;BME280;35209;51.050;13.678;2023-03-22T15:36:32;99175.66;;;18.09;41.16
49341;BME280;35209;51.050;13.678;2023-03-22T15:41:38;99176.97;;;18.04;40.79
49341;BME280;35209;51.050;13.678;2023-03-22T15:52:28;99174.50;;;17.65;41.97
49341;BME280;35209;51.050;13.678;2023-03-22T15:57:43;99184.22;;;17.30;43.60
49341;BME280;35209;51.050;13.678;2023-03-22T16:08:08;99192.19;;;16.68;45.07
49341;BME280;35209;51.050;13.678;2023-03-22T16:13:20;99188.06;;;16.63;44.68
49341;BME280;35209;51.050;13.678;2023-03-22T16:18:21;99188.38;;;16.33;45.90
49341;BME280;35209;51.050;13.678;2023-03-22T16:23:22;99190.09;;;16.34;45.46
49341;BME280;35209;51.050;13.678;2023-03-22T16:28:24;99197.94;;;16.23;45.55
49341;BME280;35209;51.050;13.678;2023-03-22T16:33:25;99196.66;;;16.29;43.21
49341;BME280;35209;51.050;13.678;2023-03-22T16:38:26;99204.50;;;16.05;42.88
49341;BME280;35209;51.050;13.678;2023-03-22T16:43:27;99206.97;;;16.21;42.22
49341;BME280;35209;51.050;13.678;2023-03-22T16:48:28;99205.00;;;15.97;42.62
49341;BME280;35209;51.050;13.678;2023-03-22T16:53:28;99203.47;;;15.80;43.10
49341;BME280;35209;51.050;13.678;2023-03-22T16:58:29;99201.88;;;15.78;43.00
49341;BME280;35209;51.050;13.678;2023-03-22T17:03:30;99211.97;;;15.58;43.72
49341;BME280;35209;51.050;13.678;2023-03-22T17:08:31;99211.00;;;15.32;44.98
49341;BME280;35209;51.050;13.678;2023-03-22T17:13:32;99211.94;;;15.31;45.07
49341;BME280;35209;51.050;13.678;2023-03-22T17:18:32;99216.56;;;14.86;46.35
49341;BME280;35209;51.050;13.678;2023-03-22T17:23:33;99218.09;;;14.62;46.85
49341;BME280;35209;51.050;13.678;2023-03-22T17:28:34;99226.78;;;14.34;48.02
49341;BME280;35209;51.050;13.678;2023-03-22T17:33:34;99236.22;;;14.24;48.69
49341;BME280;35209;51.050;13.678;2023-03-22T17:38:36;99237.06;;;13.94;50.39
49341;BME280;35209;51.050;13.678;2023-03-22T17:43:36;99233.78;;;13.91;50.57
49341;BME280;35209;51.050;13.678;2023-03-22T17:48:37;99255.63;;;13.78;51.94
49341;BME280;35209;51.050;13.678;2023-03-22T17:53:38;99267.41;;;13.73;52.17
49341;BME280;35209;51.050;13.678;2023-03-22T17:58:39;99276.16;;;13.57;54.47
49341;BME280;35209;51.050;13.678;2023-03-22T18:03:40;99282.38;;;13.25;55.93
49341;BME280;35209;51.050;13.678;2023-03-22T18:08:41;99286.97;;;13.53;56.29
49341;BME280;35209;51.050;13.678;2023-03-22T18:13:41;99270.97;;;13.24;57.19
49341;BME280;35209;51.050;13.678;2023-03-22T18:18:42;99273.13;;;13.00;57.67
49341;BME280;35209;51.050;13.678;2023-03-22T18:23:43;99280.97;;;13.02;57.40
49341;BME280;35209;51.050;13.678;2023-03-22T18:28:44;99282.16;;;12.79;57.75
49341;BME280;35209;51.050;13.678;2023-03-22T18:33:45;99286.50;;;12.97;56.18
49341;BME280;35209;51.050;13.678;2023-03-22T18:38:45;99290.63;;;12.85;56.28
49341;BME280;35209;51.050;13.678;2023-03-22T18:43:46;99287.97;;;12.85;56.71
49341;BME280;35209;51.050;13.678;2023-03-22T18:48:47;99299.47;;;12.84;57.11
49341;BME280;35209;51.050;13.678;2023-03-22T18:53:49;99308.25;;;12.68;57.06
49341;BME280;35209;51.050;13.678;2023-03-22T18:58:50;99297.72;;;12.68;56.92
49341;BME280;35209;51.050;13.678;2023-03-22T19:03:51;99302.06;;;12.69;56.93
49341;BME280;35209;51.050;13.678;2023-03-22T19:08:54;99304.75;;;12.84;57.21
49341;BME280;35209;51.050;13.678;2023-03-22T19:13:55;99304.91;;;12.81;57.57
49341;BME280;35209;51.050;13.678;2023-03-22T19:18:56;99312.47;;;12.54;57.71
49341;BME280;35209;51.050;13.678;2023-03-22T19:23:57;99309.22;;;12.49;58.12
49341;BME280;35209;51.050;13.678;2023-03-22T19:28:59;99307.97;;;12.39;58.73
49341;BME280;35209;51.050;13.678;2023-03-22T19:34:00;99300.00;;;12.23;59.46
49341;BME280;35209;51.050;13.678;2023-03-22T19:39:02;99294.16;;;12.17;60.49
49341;BME280;35209;51.050;13.678;2023-03-22T19:44:03;99300.50;;;12.12;61.42
49341;BME280;35209;51.050;13.678;2023-03-22T19:49:04;99292.31;;;12.01;61.58
49341;BME280;35209;51.050;13.678;2023-03-22T19:54:05;99296.78;;;11.99;62.43
49341;BME280;35209;51.050;13.678;2023-03-22T19:59:06;99296.31;;;11.91;63.16
49341;BME280;35209;51.050;13.678;2023-03-22T20:04:07;99295.75;;;11.84;63.99
49341;BME280;35209;51.050;13.678;2023-03-22T20:09:08;99302.22;;;11.96;63.73
49341;BME280;35209;51.050;13.678;2023-03-22T20:14:10;99298.47;;;11.83;64.08
49341;BME280;35209;51.050;13.678;2023-03-22T20:19:12;99299.59;;;11.96;64.43
49341;BME280;35209;51.050;13.678;2023-03-22T20:24:13;99293.22;;;11.83;64.08
49341;BME280;35209;51.050;13.678;2023-03-22T20:29:14;99293.41;;;11.78;63.04
49341;BME280;35209;51.050;13.678;2023-03-22T20:34:17;99292.06;;;12.06;61.48
49341;BME280;35209;51.050;13.678;2023-03-22T20:39:19;99278.34;;;11.99;61.58
49341;BME280;35209;51.050;13.678;2023-03-22T20:44:19;99282.75;;;11.99;61.18
49341;BME280;35209;51.050;13.678;2023-03-22T20:49:21;99277.03;;;12.08;61.42
49341;BME280;35209;51.050;13.678;2023-03-22T20:54:21;99284.09;;;12.07;61.80
49341;BME280;35209;51.050;13.678;2023-03-22T20:59:22;99265.81;;;12.04;61.69
49341;BME280;35209;51.050;13.678;2023-03-22T21:04:23;99274.25;;;12.28;63.04
49341;BME280;35209;51.050;13.678;2023-03-22T21:09:24;99285.78;;;12.08;62.54
49341;BME280;35209;51.050;13.678;2023-03-22T21:14:25;99280.22;;;11.97;62.31
49341;BME280;35209;51.050;13.678;2023-03-22T21:19:26;99276.50;;;12.01;61.94
49341;BME280;35209;51.050;13.678;2023-03-22T21:24:27;99272.63;;;11.91;62.83
49341;BME280;35209;51.050;13.678;2023-03-22T21:29:28;99276.94;;;11.92;63.60
49341;BME280;35209;51.050;13.678;2023-03-22T21:34:29;99278.81;;;12.07;64.98
49341;BME280;35209;51.050;13.678;2023-03-22T21:39:30;99283.31;;;12.05;66.82
49341;BME280;35209;51.050;13.678;2023-03-22T21:44:32;99289.13;;;12.12;66.61
49341;BME280;35209;51.050;13.678;2023-03-22T21:49:33;99276.41;;;12.03;68.09
49341;BME280;35209;51.050;13.678;2023-03-22T21:54:34;99262.94;;;12.09;67.99
49341;BME280;35209;51.050;13.678;2023-03-22T21:59:34;99254.00;;;11.94;67.15
49341;BME280;35209;51.050;13.678;2023-03-22T22:04:35;99244.31;;;11.95;68.08
49341;BME280;35209;51.050;13.678;2023-03-22T22:09:37;99232.66;;;11.83;68.10
49341;BME280;35209;51.050;13.678;2023-03-22T22:14:38;99221.31;;;11.98;66.92
49341;BME280;35209;51.050;13.678;2023-03-22T22:19:38;99214.28;;;12.16;66.51
49341;BME280;35209;51.050;13.678;2023-03-22T22:24:40;99210.72;;;12.00;67.67
49341;BME280;35209;51.050;13.678;2023-03-22T22:29:40;99196.63;;;12.01;68.01
49341;BME280;35209;51.050;13.678;2023-03-22T22:34:41;99207.31;;;11.98;68.86
49341;BME280;35209;51.050;13.678;2023-03-22T22:39:42;99196.25;;;11.91;69.55
49341;BME280;35209;51.050;13.678;2023-03-22T22:44:43;99192.22;;;12.01;68.36
49341;BME280;35209;51.050;13.678;2023-03-22T22:49:43;99202.50;;;12.06;68.09
49341;BME280;35209;51.050;13.678;2023-03-22T22:54:44;99204.66;;;12.15;67.19
49341;BME280;35209;51.050;13.678;2023-03-22T22:59:45;99205.53;;;12.16;66.81
49341;BME280;35209;51.050;13.678;2023-03-22T23:04:45;99200.03;;;12.03;67.36
49341;BME280;35209;51.050;13.678;2023-03-22T23:09:46;99191.41;;;12.17;65.40
49341;BME280;35209;51.050;13.678;2023-03-22T23:14:47;99195.56;;;12.38;64.81
49341;BME280;35209;51.050;13.678;2023-03-22T23:19:48;99190.63;;;12.32;64.69
49341;BME280;35209;51.050;13.678;2023-03-22T23:25:01;99179.91;;;12.35;63.63
49341;BME280;35209;51.050;13.678;2023-03-22T23:30:08;99174.34;;;12.57;63.74
49341;BME280;35209;51.050;13.678;2023-03-22T23:35:10;99168.66;;;12.65;63.46
49341;BME280;35209;51.050;13.678;2023-03-22T23:40:12;99167.47;;;12.54;63.92
49341;BME280;35209;51.050;13.678;2023-03-22T23:45:13;99166.69;;;12.52;63.06
49341;BME280;35209;51.050;13.678;2023-03-22T23:50:14;99158.41;;;12.92;60.71
49341;BME280;35209;51.050;13.678;2023-03-22T23:55:15;99162.47;;;12.81;61.19
